HUZAR14 EPMB-EPMB
Flight info
| Callsign | HUZAR14 |
|---|---|
| Flight time | 0h 46m |
| Altitude | 2500 |
| Route | EPMBG EPPRK EPOKH |
| Aircraft | F35/M-SDE3RV/LB1 |
Departure
| Time | 2026-04-25 17:13 |
|---|---|
| Airport | Malbork Królewo Air Base (EPMB) |
Arrival
| Time | 2026-04-25 17:59 |
|---|---|
| Airport | Malbork Królewo Air Base (EPMB) |
| Time | Latitude | Longitude | Altitude | Speed | Heading |
|---|---|---|---|---|---|
| 2026-04-25 17:02 | 54.03149 | 19.14572 | 14 ft | 0 kts | 228° |
| 2026-04-25 17:07 | 54.03129 | 19.14562 | 14 ft | 8 kts | 187° |
| 2026-04-25 17:07 | 54.03067 | 19.14582 | 14 ft | 13 kts | 168° |
| 2026-04-25 17:07 | 54.02941 | 19.14624 | 15 ft | 19 kts | 168° |
| 2026-04-25 17:08 | 54.02885 | 19.14645 | 16 ft | 0 kts | 168° |
| 2026-04-25 17:09 | 54.02855 | 19.14653 | 17 ft | 11 kts | 172° |
| 2026-04-25 17:09 | 54.02778 | 19.14598 | 21 ft | 11 kts | 245° |
| 2026-04-25 17:09 | 54.02773 | 19.14554 | 21 ft | 0 kts | 259° |
| 2026-04-25 17:12 | 54.02772 | 19.14545 | 21 ft | 9 kts | 259° |
| 2026-04-25 17:12 | 54.02623 | 19.13240 | 109 ft | 200 kts | 259° |
| 2026-04-25 17:12 | 54.02331 | 19.10778 | 597 ft | 214 kts | 260° |
| 2026-04-25 17:13 | 54.02039 | 19.08320 | 1220 ft | 213 kts | 271° |
| 2026-04-25 17:13 | 54.02231 | 19.06716 | 1661 ft | 212 kts | 299° |
| 2026-04-25 17:13 | 54.03753 | 19.04681 | 2077 ft | 213 kts | 335° |
| 2026-04-25 17:13 | 54.05172 | 19.03967 | 2193 ft | 214 kts | 343° |
| 2026-04-25 17:14 | 54.06644 | 19.03429 | 2228 ft | 215 kts | 346° |
| 2026-04-25 17:14 | 54.08121 | 19.02958 | 2231 ft | 216 kts | 346° |
| 2026-04-25 17:14 | 54.09600 | 19.02523 | 2233 ft | 216 kts | 347° |
| 2026-04-25 17:14 | 54.11082 | 19.02097 | 2238 ft | 215 kts | 347° |
| 2026-04-25 17:15 | 54.12563 | 19.01679 | 2243 ft | 216 kts | 347° |
| 2026-04-25 17:15 | 54.13996 | 19.01015 | 2262 ft | 214 kts | 331° |
| 2026-04-25 17:15 | 54.15272 | 18.99815 | 2264 ft | 211 kts | 326° |
| 2026-04-25 17:15 | 54.16517 | 18.98464 | 2259 ft | 210 kts | 324° |
| 2026-04-25 17:16 | 54.17734 | 18.97076 | 2261 ft | 211 kts | 323° |
| 2026-04-25 17:16 | 54.18942 | 18.95667 | 2258 ft | 211 kts | 323° |
| 2026-04-25 17:16 | 54.20146 | 18.94249 | 2257 ft | 209 kts | 323° |
| 2026-04-25 17:16 | 54.21351 | 18.92823 | 2257 ft | 210 kts | 322° |
| 2026-04-25 17:17 | 54.22552 | 18.91398 | 2259 ft | 211 kts | 322° |
| 2026-04-25 17:17 | 54.23749 | 18.89975 | 2256 ft | 211 kts | 322° |
| 2026-04-25 17:17 | 54.24950 | 18.88548 | 2259 ft | 209 kts | 322° |
| 2026-04-25 17:17 | 54.26145 | 18.87126 | 2255 ft | 209 kts | 322° |
| 2026-04-25 17:18 | 54.27347 | 18.85697 | 2258 ft | 210 kts | 322° |
| 2026-04-25 17:18 | 54.28548 | 18.84271 | 2255 ft | 210 kts | 322° |
| 2026-04-25 17:18 | 54.29738 | 18.82857 | 2255 ft | 208 kts | 322° |
| 2026-04-25 17:18 | 54.30942 | 18.81448 | 2258 ft | 209 kts | 327° |
| 2026-04-25 17:19 | 54.32372 | 18.81077 | 2280 ft | 219 kts | 9° |
| 2026-04-25 17:19 | 54.33802 | 18.82127 | 2278 ft | 228 kts | 24° |
| 2026-04-25 17:19 | 54.35182 | 18.83518 | 2261 ft | 230 kts | 27° |
| 2026-04-25 17:19 | 54.36522 | 18.84982 | 2240 ft | 229 kts | 28° |
| 2026-04-25 17:20 | 54.37867 | 18.86493 | 2237 ft | 230 kts | 27° |
| 2026-04-25 17:20 | 54.39216 | 18.87959 | 2236 ft | 232 kts | 26° |
| 2026-04-25 17:20 | 54.40595 | 18.89349 | 2235 ft | 228 kts | 24° |
| 2026-04-25 17:20 | 54.41994 | 18.90669 | 2232 ft | 227 kts | 22° |
| 2026-04-25 17:21 | 54.43409 | 18.91882 | 2236 ft | 228 kts | 19° |
| 2026-04-25 17:21 | 54.44841 | 18.92984 | 2225 ft | 224 kts | 18° |
| 2026-04-25 17:21 | 54.46283 | 18.94063 | 2220 ft | 225 kts | 17° |
| 2026-04-25 17:21 | 54.47746 | 18.94893 | 2220 ft | 216 kts | 355° |
| 2026-04-25 17:22 | 54.49196 | 18.94430 | 2169 ft | 210 kts | 338° |
| 2026-04-25 17:22 | 54.50128 | 18.93925 | 2132 ft | 212 kts | 338° |
| 2026-04-25 17:22 | 54.51942 | 18.92707 | 2198 ft | 208 kts | 329° |
| 2026-04-25 17:22 | 54.53169 | 18.91414 | 2228 ft | 207 kts | 320° |
| 2026-04-25 17:23 | 54.54255 | 18.89819 | 2238 ft | 205 kts | 312° |
| 2026-04-25 17:23 | 54.55197 | 18.88027 | 2256 ft | 203 kts | 311° |
| 2026-04-25 17:23 | 54.56190 | 18.86380 | 2255 ft | 204 kts | 317° |
| 2026-04-25 17:23 | 54.57334 | 18.84886 | 2244 ft | 206 kts | 323° |
| 2026-04-25 17:24 | 54.58575 | 18.83637 | 2241 ft | 208 kts | 329° |
| 2026-04-25 17:24 | 54.59897 | 18.82616 | 2241 ft | 209 kts | 334° |
| 2026-04-25 17:24 | 54.61252 | 18.81679 | 2259 ft | 206 kts | 330° |
| 2026-04-25 17:24 | 54.62074 | 18.79827 | 2274 ft | 203 kts | 278° |
| 2026-04-25 17:25 | 54.61407 | 18.77765 | 2324 ft | 225 kts | 207° |
| 2026-04-25 17:25 | 54.59916 | 18.78517 | 2321 ft | 248 kts | 126° |
| 2026-04-25 17:25 | 54.59803 | 18.81296 | 2408 ft | 238 kts | 53° |
| 2026-04-25 17:25 | 54.61145 | 18.82268 | 2877 ft | 214 kts | 340° |
| 2026-04-25 17:26 | 54.61901 | 18.80467 | 2782 ft | 210 kts | 260° |
| 2026-04-25 17:26 | 54.60813 | 18.78781 | 2552 ft | 232 kts | 197° |
| 2026-04-25 17:26 | 54.59394 | 18.79959 | 2419 ft | 251 kts | 114° |
| 2026-04-25 17:26 | 54.59757 | 18.82566 | 2042 ft | 227 kts | 29° |
| 2026-04-25 17:27 | 54.61182 | 18.82657 | 2116 ft | 204 kts | 318° |
| 2026-04-25 17:27 | 54.61358 | 18.80457 | 2282 ft | 210 kts | 242° |
| 2026-04-25 17:27 | 54.60050 | 18.79200 | 2723 ft | 239 kts | 188° |
| 2026-04-25 17:27 | 54.59505 | 18.79296 | 2711 ft | 248 kts | 167° |
| 2026-04-25 17:28 | 54.59338 | 18.83021 | 2375 ft | 230 kts | 19° |
| 2026-04-25 17:28 | 54.60775 | 18.82937 | 2372 ft | 207 kts | 322° |
| 2026-04-25 17:28 | 54.61368 | 18.80928 | 2500 ft | 211 kts | 259° |
| 2026-04-25 17:28 | 54.60199 | 18.79516 | 2456 ft | 236 kts | 183° |
| 2026-04-25 17:29 | 54.58854 | 18.81071 | 2332 ft | 251 kts | 113° |
| 2026-04-25 17:29 | 54.59100 | 18.83803 | 2878 ft | 238 kts | 39° |
| 2026-04-25 17:29 | 54.60520 | 18.84440 | 2686 ft | 209 kts | 335° |
| 2026-04-25 17:29 | 54.61651 | 18.82951 | 2313 ft | 203 kts | 311° |
| 2026-04-25 17:30 | 54.62187 | 18.81663 | 2174 ft | 199 kts | 293° |
| 2026-04-25 17:30 | 54.61756 | 18.78697 | 1918 ft | 215 kts | 223° |
| 2026-04-25 17:30 | 54.60234 | 18.78440 | 2077 ft | 242 kts | 156° |
| 2026-04-25 17:30 | 54.59374 | 18.80815 | 1813 ft | 244 kts | 81° |
| 2026-04-25 17:31 | 54.60334 | 18.82826 | 1684 ft | 224 kts | 7° |
| 2026-04-25 17:31 | 54.61668 | 18.82168 | 2017 ft | 203 kts | 309° |
| 2026-04-25 17:31 | 54.61949 | 18.79889 | 2099 ft | 208 kts | 255° |
| 2026-04-25 17:31 | 54.60912 | 18.78146 | 2126 ft | 227 kts | 205° |
| 2026-04-25 17:32 | 54.59372 | 18.78513 | 2201 ft | 244 kts | 142° |
| 2026-04-25 17:32 | 54.59005 | 18.81253 | 2602 ft | 249 kts | 62° |
| 2026-04-25 17:32 | 54.60207 | 18.82948 | 2486 ft | 221 kts | 2° |
| 2026-04-25 17:32 | 54.61479 | 18.82091 | 2685 ft | 203 kts | 302° |
| 2026-04-25 17:33 | 54.61540 | 18.79766 | 2472 ft | 209 kts | 250° |
| 2026-04-25 17:33 | 54.60423 | 18.78134 | 2327 ft | 228 kts | 201° |
| 2026-04-25 17:33 | 54.58846 | 18.78594 | 2078 ft | 247 kts | 149° |
| 2026-04-25 17:33 | 54.58144 | 18.81155 | 2243 ft | 243 kts | 79° |
| 2026-04-25 17:34 | 54.59090 | 18.83333 | 2649 ft | 228 kts | 13° |
| 2026-04-25 17:34 | 54.60446 | 18.82851 | 1992 ft | 202 kts | 314° |
| 2026-04-25 17:34 | 54.60717 | 18.80724 | 1477 ft | 208 kts | 245° |
| 2026-04-25 17:34 | 54.59444 | 18.79697 | 1422 ft | 212 kts | 192° |
| 2026-04-25 17:35 | 54.58508 | 18.81646 | 2551 ft | 254 kts | 82° |
| 2026-04-25 17:35 | 54.59391 | 18.83952 | 2347 ft | 226 kts | 13° |
| 2026-04-25 17:35 | 54.60778 | 18.83523 | 2175 ft | 202 kts | 315° |
| 2026-04-25 17:35 | 54.61254 | 18.81392 | 2133 ft | 199 kts | 279° |
| 2026-04-25 17:36 | 54.61892 | 18.79378 | 2248 ft | 203 kts | 325° |
| 2026-04-25 17:36 | 54.63274 | 18.79724 | 2088 ft | 235 kts | 44° |
| 2026-04-25 17:36 | 54.63321 | 18.82473 | 2499 ft | 250 kts | 132° |
| 2026-04-25 17:36 | 54.61776 | 18.83171 | 2536 ft | 223 kts | 213° |
| 2026-04-25 17:37 | 54.61030 | 18.81159 | 2239 ft | 199 kts | 274° |
| 2026-04-25 17:37 | 54.61892 | 18.79574 | 1876 ft | 213 kts | 353° |
| 2026-04-25 17:37 | 54.63070 | 18.78597 | 1522 ft | 199 kts | 289° |
| 2026-04-25 17:37 | 54.62395 | 18.76678 | 1677 ft | 221 kts | 208° |
| 2026-04-25 17:38 | 54.61023 | 18.77736 | 1971 ft | 257 kts | 113° |
| 2026-04-25 17:38 | 54.60912 | 18.78697 | 1870 ft | 252 kts | 82° |
| 2026-04-25 17:38 | 54.62743 | 18.78107 | 1633 ft | 206 kts | 320° |
| 2026-04-25 17:38 | 54.63926 | 18.76746 | 1645 ft | 203 kts | 323° |
| 2026-04-25 17:39 | 54.65014 | 18.75365 | 1702 ft | 193 kts | 289° |
| 2026-04-25 17:39 | 54.64315 | 18.73591 | 1737 ft | 224 kts | 190° |
| 2026-04-25 17:39 | 54.62902 | 18.75017 | 2223 ft | 253 kts | 138° |
| 2026-04-25 17:39 | 54.61720 | 18.77305 | 2649 ft | 251 kts | 123° |
| 2026-04-25 17:40 | 54.61776 | 18.80084 | 3466 ft | 245 kts | 39° |
| 2026-04-25 17:40 | 54.63125 | 18.80330 | 2714 ft | 206 kts | 315° |
| 2026-04-25 17:40 | 54.64143 | 18.78635 | 2031 ft | 199 kts | 311° |
| 2026-04-25 17:40 | 54.65118 | 18.76932 | 1819 ft | 198 kts | 311° |
| 2026-04-25 17:41 | 54.65602 | 18.75689 | 1889 ft | 192 kts | 278° |
| 2026-04-25 17:41 | 54.64273 | 18.74017 | 1642 ft | 236 kts | 164° |
| 2026-04-25 17:41 | 54.62924 | 18.75785 | 1675 ft | 246 kts | 141° |
| 2026-04-25 17:41 | 54.61698 | 18.77900 | 1891 ft | 249 kts | 137° |
| 2026-04-25 17:42 | 54.60722 | 18.80333 | 2269 ft | 256 kts | 96° |
| 2026-04-25 17:42 | 54.60997 | 18.82194 | 2478 ft | 240 kts | 38° |
| 2026-04-25 17:42 | 54.62257 | 18.82020 | 2208 ft | 214 kts | 315° |
| 2026-04-25 17:42 | 54.63276 | 18.80304 | 2022 ft | 203 kts | 311° |
| 2026-04-25 17:43 | 54.64312 | 18.78673 | 1838 ft | 198 kts | 315° |
| 2026-04-25 17:43 | 54.65351 | 18.77120 | 1874 ft | 198 kts | 311° |
| 2026-04-25 17:43 | 54.65481 | 18.74947 | 2339 ft | 205 kts | 245° |
| 2026-04-25 17:43 | 54.64253 | 18.73558 | 2463 ft | 233 kts | 195° |
| 2026-04-25 17:44 | 54.62658 | 18.74377 | 2389 ft | 255 kts | 152° |
| 2026-04-25 17:44 | 54.61292 | 18.76299 | 2207 ft | 254 kts | 142° |
| 2026-04-25 17:44 | 54.60047 | 18.78458 | 2081 ft | 253 kts | 131° |
| 2026-04-25 17:44 | 54.59528 | 18.81254 | 2329 ft | 253 kts | 71° |
| 2026-04-25 17:45 | 54.60662 | 18.83019 | 2268 ft | 211 kts | 351° |
| 2026-04-25 17:45 | 54.61528 | 18.82395 | 2195 ft | 207 kts | 322° |
| 2026-04-25 17:45 | 54.62599 | 18.80066 | 2295 ft | 200 kts | 260° |
| 2026-04-25 17:45 | 54.61442 | 18.78820 | 2328 ft | 243 kts | 175° |
| 2026-04-25 17:46 | 54.60008 | 18.80514 | 2341 ft | 256 kts | 142° |
| 2026-04-25 17:46 | 54.58669 | 18.82520 | 2304 ft | 256 kts | 142° |
| 2026-04-25 17:46 | 54.57344 | 18.84564 | 2277 ft | 256 kts | 142° |
| 2026-04-25 17:46 | 54.56026 | 18.86604 | 2251 ft | 255 kts | 142° |
| 2026-04-25 17:47 | 54.54714 | 18.88632 | 2233 ft | 253 kts | 142° |
| 2026-04-25 17:47 | 54.53401 | 18.90659 | 2223 ft | 253 kts | 142° |
| 2026-04-25 17:47 | 54.52081 | 18.92693 | 2212 ft | 254 kts | 143° |
| 2026-04-25 17:47 | 54.50641 | 18.94283 | 2272 ft | 243 kts | 171° |
| 2026-04-25 17:48 | 54.47323 | 18.94630 | 2532 ft | 238 kts | 205° |
| 2026-04-25 17:48 | 54.45781 | 18.93779 | 2689 ft | 236 kts | 206° |
| 2026-04-25 17:48 | 54.44228 | 18.92868 | 2750 ft | 236 kts | 208° |
| 2026-04-25 17:49 | 54.42730 | 18.91793 | 2822 ft | 234 kts | 211° |
| 2026-04-25 17:49 | 54.41234 | 18.90688 | 2901 ft | 233 kts | 211° |
| 2026-04-25 17:49 | 54.39751 | 18.89597 | 2988 ft | 221 kts | 211° |
| 2026-04-25 17:49 | 54.38357 | 18.88602 | 3043 ft | 215 kts | 211° |
| 2026-04-25 17:50 | 54.36996 | 18.87583 | 3101 ft | 215 kts | 213° |
| 2026-04-25 17:50 | 54.35595 | 18.86473 | 2984 ft | 221 kts | 213° |
| 2026-04-25 17:50 | 54.34191 | 18.85361 | 2876 ft | 221 kts | 213° |
| 2026-04-25 17:50 | 54.32752 | 18.84406 | 2769 ft | 231 kts | 194° |
| 2026-04-25 17:51 | 54.31164 | 18.85162 | 2651 ft | 251 kts | 147° |
| 2026-04-25 17:51 | 54.29965 | 18.87343 | 2339 ft | 252 kts | 133° |
| 2026-04-25 17:51 | 54.28672 | 18.89317 | 2057 ft | 249 kts | 146° |
| 2026-04-25 17:51 | 54.27349 | 18.91192 | 2253 ft | 246 kts | 145° |
| 2026-04-25 17:52 | 54.26008 | 18.93084 | 2481 ft | 252 kts | 145° |
| 2026-04-25 17:52 | 54.25100 | 18.94290 | 2459 ft | 249 kts | 149° |
| 2026-04-25 17:52 | 54.23222 | 18.96609 | 2415 ft | 249 kts | 149° |
| 2026-04-25 17:52 | 54.21815 | 18.98332 | 2397 ft | 242 kts | 150° |
| 2026-04-25 17:53 | 54.20512 | 18.99936 | 2354 ft | 241 kts | 150° |
| 2026-04-25 17:53 | 54.19137 | 19.01534 | 2317 ft | 235 kts | 154° |
| 2026-04-25 17:53 | 54.17722 | 19.02918 | 2293 ft | 233 kts | 157° |
| 2026-04-25 17:53 | 54.16299 | 19.04268 | 2268 ft | 234 kts | 157° |
| 2026-04-25 17:54 | 54.14908 | 19.05587 | 2253 ft | 233 kts | 157° |
| 2026-04-25 17:54 | 54.13574 | 19.07177 | 2246 ft | 238 kts | 141° |
| 2026-04-25 17:54 | 54.12476 | 19.09128 | 2229 ft | 221 kts | 139° |
| 2026-04-25 17:54 | 54.11413 | 19.11007 | 2220 ft | 219 kts | 139° |
| 2026-04-25 17:55 | 54.10366 | 19.12863 | 2206 ft | 204 kts | 138° |
| 2026-04-25 17:55 | 54.09446 | 19.14639 | 2145 ft | 200 kts | 126° |
| 2026-04-25 17:55 | 54.08901 | 19.16852 | 2113 ft | 202 kts | 112° |
| 2026-04-25 17:55 | 54.08408 | 19.19111 | 2103 ft | 201 kts | 112° |
| 2026-04-25 17:56 | 54.07928 | 19.21315 | 2114 ft | 202 kts | 112° |
| 2026-04-25 17:56 | 54.07439 | 19.23563 | 2131 ft | 205 kts | 112° |
| 2026-04-25 17:56 | 54.06742 | 19.25629 | 2157 ft | 200 kts | 139° |
| 2026-04-25 17:56 | 54.05611 | 19.26760 | 2169 ft | 184 kts | 180° |
| 2026-04-25 17:57 | 54.04538 | 19.26368 | 1774 ft | 151 kts | 216° |
| 2026-04-25 17:57 | 54.03970 | 19.25073 | 952 ft | 155 kts | 259° |
| 2026-04-25 17:57 | 54.03748 | 19.23232 | 695 ft | 149 kts | 261° |
| 2026-04-25 17:57 | 54.03623 | 19.22080 | 613 ft | 152 kts | 260° |
| 2026-04-25 17:58 | 54.03362 | 19.19797 | 450 ft | 144 kts | 260° |
| 2026-04-25 17:58 | 54.03182 | 19.18198 | 303 ft | 148 kts | 260° |
| 2026-04-25 17:58 | 54.02998 | 19.16584 | 126 ft | 121 kts | 260° |
| 2026-04-25 17:58 | 54.02837 | 19.15147 | 28 ft | 117 kts | 260° |
| 2026-04-25 17:59 | 54.02718 | 19.14066 | 20 ft | 80 kts | 259° |
| 2026-04-25 17:59 | 54.02636 | 19.13346 | 19 ft | 47 kts | 258° |
| 2026-04-25 17:59 | 54.02580 | 19.12844 | 20 ft | 36 kts | 259° |
| 2026-04-25 17:59 | 54.02553 | 19.12543 | 21 ft | 18 kts | 288° |
| 2026-04-25 18:00 | 54.02629 | 19.12468 | 16 ft | 14 kts | 352° |
| 2026-04-25 18:00 | 54.02744 | 19.12432 | 15 ft | 19 kts | 349° |
| 2026-04-25 18:00 | 54.02847 | 19.12435 | 15 ft | 12 kts | 52° |
| 2026-04-25 18:00 | 54.02875 | 19.12536 | 15 ft | 8 kts | 18° |
| 2026-04-25 18:01 | 54.02893 | 19.12533 | 15 ft | 0 kts | 348° |